Elbe, Washington
Current Conditions -  °F | °C
As of 7:58 AM on Tuesday 21 Oct 2014 (Local Time) from KGRF Reporting Station
Few Clouds Few Clouds  
Wind Chill: 53°   Ceiling: Unl
Heat Index: 53°   Visibility: 10mi
Dew Point: 52°   Wind: 9mph
Humidity: 97%   Direction: 170°S
Pressure: 29.89"   Gusts: NA
Location:  46.76°N, 122.2°W
Report Text: KGRF 211458Z AUTO 17008KT 10SM FEW029 12/11 A2989 RMK AO2 SLP126 60000 T01150111 52017 PWINO $
Loading
Personal Weather Stations






























Interactive Weather Map New forecast layout! Learn more

10-Day Weather Forecast

Advertisements
Track Severe Weather on mobile